<?xml version='1.0' encoding='UTF-8'?>
<gpx version="1.1" creator="https://www.komoot.de" xmlns="http://www.topografix.com/GPX/1/1" xmlns:xsi="http://www.w3.org/2001/XMLSchema-instance" xsi:schemaLocation="http://www.topografix.com/GPX/1/1 http://www.topografix.com/GPX/1/1/gpx.xsd">
  <metadata>
    <name>Schloss Waldeck - Edertalsperre Panorama-Tour</name>
    <author>
      <link href="https://www.komoot.de">
        <text>komoot</text>
        <type>text/html</type>
      </link>
    </author>
  </metadata>
  <trk>
    <name>Schloss Waldeck - Edertalsperre Panorama-Tour</name>
    <trkseg>
      <trkpt lat="51.204021" lon="9.057809">
        <ele>363.854417</ele>
        <time>2024-07-14T20:08:12.410Z</time>
      </trkpt>
      <trkpt lat="51.204186" lon="9.058041">
        <ele>363.854417</ele>
        <time>2024-07-14T20:08:37.837Z</time>
      </trkpt>
      <trkpt lat="51.204247" lon="9.058161">
        <ele>363.854417</ele>
        <time>2024-07-14T20:08:49.097Z</time>
      </trkpt>
      <trkpt lat="51.204264" lon="9.058196">
        <ele>363.854417</ele>
        <time>2024-07-14T20:08:52.302Z</time>
      </trkpt>
      <trkpt lat="51.204419" lon="9.058648">
        <ele>363.854417</ele>
        <time>2024-07-14T20:09:30.606Z</time>
      </trkpt>
      <trkpt lat="51.204439" lon="9.058800">
        <ele>363.854417</ele>
        <time>2024-07-14T20:09:42.206Z</time>
      </trkpt>
      <trkpt lat="51.204428" lon="9.058923">
        <ele>363.854417</ele>
        <time>2024-07-14T20:09:51.666Z</time>
      </trkpt>
      <trkpt lat="51.204353" lon="9.059107">
        <ele>363.403192</ele>
        <time>2024-07-14T20:10:08.555Z</time>
      </trkpt>
      <trkpt lat="51.204291" lon="9.059259">
        <ele>362.767578</ele>
        <time>2024-07-14T20:10:21.949Z</time>
      </trkpt>
      <trkpt lat="51.204239" lon="9.059198">
        <ele>362.406615</ele>
        <time>2024-07-14T20:10:29.454Z</time>
      </trkpt>
      <trkpt lat="51.204081" lon="9.059430">
        <ele>361.205769</ele>
        <time>2024-07-14T20:10:55.144Z</time>
      </trkpt>
      <trkpt lat="51.203938" lon="9.059715">
        <ele>359.926195</ele>
        <time>2024-07-14T20:11:21.203Z</time>
      </trkpt>
      <trkpt lat="51.203908" lon="9.059829">
        <ele>359.492875</ele>
        <time>2024-07-14T20:11:30.185Z</time>
      </trkpt>
      <trkpt lat="51.203865" lon="9.060006">
        <ele>358.827583</ele>
        <time>2024-07-14T20:11:43.382Z</time>
      </trkpt>
      <trkpt lat="51.203875" lon="9.060281">
        <ele>357.862225</ele>
        <time>2024-07-14T20:12:02.323Z</time>
      </trkpt>
      <trkpt lat="51.203904" lon="9.061061">
        <ele>355.123911</ele>
        <time>2024-07-14T20:12:55.365Z</time>
      </trkpt>
      <trkpt lat="51.204013" lon="9.061338">
        <ele>353.977594</ele>
        <time>2024-07-14T20:13:17.066Z</time>
      </trkpt>
      <trkpt lat="51.204048" lon="9.061632">
        <ele>354.197719</ele>
        <time>2024-07-14T20:13:36.784Z</time>
      </trkpt>
      <trkpt lat="51.204086" lon="9.061746">
        <ele>354.408855</ele>
        <time>2024-07-14T20:13:45.014Z</time>
      </trkpt>
      <trkpt lat="51.204307" lon="9.062021">
        <ele>355.140155</ele>
        <time>2024-07-14T20:14:15.456Z</time>
      </trkpt>
      <trkpt lat="51.204596" lon="9.062202">
        <ele>355.950331</ele>
        <time>2024-07-14T20:14:51.609Z</time>
      </trkpt>
      <trkpt lat="51.204809" lon="9.062472">
        <ele>356.660166</ele>
        <time>2024-07-14T20:15:23.728Z</time>
      </trkpt>
      <trkpt lat="51.204916" lon="9.062750">
        <ele>357.193626</ele>
        <time>2024-07-14T20:15:47.835Z</time>
      </trkpt>
      <trkpt lat="51.205070" lon="9.063341">
        <ele>358.240175</ele>
        <time>2024-07-14T20:16:35.293Z</time>
      </trkpt>
      <trkpt lat="51.205105" lon="9.063425">
        <ele>358.405116</ele>
        <time>2024-07-14T20:16:42.775Z</time>
      </trkpt>
      <trkpt lat="51.205190" lon="9.063522">
        <ele>358.120523</ele>
        <time>2024-07-14T20:16:55.217Z</time>
      </trkpt>
      <trkpt lat="51.205170" lon="9.063693">
        <ele>357.570404</ele>
        <time>2024-07-14T20:17:06.770Z</time>
      </trkpt>
      <trkpt lat="51.205105" lon="9.063928">
        <ele>356.758032</ele>
        <time>2024-07-14T20:17:22.957Z</time>
      </trkpt>
      <trkpt lat="51.205059" lon="9.064019">
        <ele>356.388263</ele>
        <time>2024-07-14T20:17:30.637Z</time>
      </trkpt>
      <trkpt lat="51.204728" lon="9.064671">
        <ele>353.734425</ele>
        <time>2024-07-14T20:18:27.240Z</time>
      </trkpt>
      <trkpt lat="51.204683" lon="9.064543">
        <ele>353.270257</ele>
        <time>2024-07-14T20:18:37.818Z</time>
      </trkpt>
      <trkpt lat="51.204383" lon="9.064282">
        <ele>351.545651</ele>
        <time>2024-07-14T20:19:18.000Z</time>
      </trkpt>
      <trkpt lat="51.204149" lon="9.064088">
        <ele>350.214691</ele>
        <time>2024-07-14T20:19:50.191Z</time>
      </trkpt>
      <trkpt lat="51.203463" lon="9.063485">
        <ele>342.125628</ele>
        <time>2024-07-14T20:21:27.371Z</time>
      </trkpt>
      <trkpt lat="51.203393" lon="9.063375">
        <ele>340.978209</ele>
        <time>2024-07-14T20:21:39.318Z</time>
      </trkpt>
      <trkpt lat="51.203090" lon="9.062930">
        <ele>336.168678</ele>
        <time>2024-07-14T20:22:29.218Z</time>
      </trkpt>
      <trkpt lat="51.203016" lon="9.062833">
        <ele>335.050182</ele>
        <time>2024-07-14T20:22:41.127Z</time>
      </trkpt>
      <trkpt lat="51.202943" lon="9.062814">
        <ele>334.186254</ele>
        <time>2024-07-14T20:22:49.842Z</time>
      </trkpt>
      <trkpt lat="51.202886" lon="9.062800">
        <ele>333.512638</ele>
        <time>2024-07-14T20:22:56.807Z</time>
      </trkpt>
      <trkpt lat="51.202777" lon="9.062807">
        <ele>332.238452</ele>
        <time>2024-07-14T20:23:10.952Z</time>
      </trkpt>
      <trkpt lat="51.202688" lon="9.062770">
        <ele>331.164214</ele>
        <time>2024-07-14T20:23:23.029Z</time>
      </trkpt>
      <trkpt lat="51.202777" lon="9.062807">
        <ele>330.089976</ele>
        <time>2024-07-14T20:23:34.127Z</time>
      </trkpt>
      <trkpt lat="51.202886" lon="9.062800">
        <ele>328.815790</ele>
        <time>2024-07-14T20:23:47.637Z</time>
      </trkpt>
      <trkpt lat="51.202805" lon="9.062843">
        <ele>327.917856</ele>
        <time>2024-07-14T20:23:58.755Z</time>
      </trkpt>
      <trkpt lat="51.202752" lon="9.063216">
        <ele>325.595757</ele>
        <time>2024-07-14T20:24:27.603Z</time>
      </trkpt>
      <trkpt lat="51.202692" lon="9.063429">
        <ele>324.177889</ele>
        <time>2024-07-14T20:24:45.941Z</time>
      </trkpt>
      <trkpt lat="51.202627" lon="9.063491">
        <ele>323.444139</ele>
        <time>2024-07-14T20:24:54.904Z</time>
      </trkpt>
      <trkpt lat="51.202501" lon="9.063543">
        <ele>322.183065</ele>
        <time>2024-07-14T20:25:09.340Z</time>
      </trkpt>
      <trkpt lat="51.202193" lon="9.063430">
        <ele>319.120763</ele>
        <time>2024-07-14T20:25:45.849Z</time>
      </trkpt>
      <trkpt lat="51.202017" lon="9.063515">
        <ele>317.338984</ele>
        <time>2024-07-14T20:26:07.391Z</time>
      </trkpt>
      <trkpt lat="51.201751" lon="9.063503">
        <ele>314.760465</ele>
        <time>2024-07-14T20:26:37.262Z</time>
      </trkpt>
      <trkpt lat="51.201621" lon="9.063575">
        <ele>313.427095</ele>
        <time>2024-07-14T20:26:53.847Z</time>
      </trkpt>
      <trkpt lat="51.201513" lon="9.063800">
        <ele>311.706242</ele>
        <time>2024-07-14T20:27:14.712Z</time>
      </trkpt>
      <trkpt lat="51.201524" lon="9.064019">
        <ele>310.528724</ele>
        <time>2024-07-14T20:27:31.886Z</time>
      </trkpt>
      <trkpt lat="51.201525" lon="9.064046">
        <ele>310.407341</ele>
        <time>2024-07-14T20:27:33.983Z</time>
      </trkpt>
      <trkpt lat="51.201482" lon="9.064407">
        <ele>308.758217</ele>
        <time>2024-07-14T20:28:02.576Z</time>
      </trkpt>
      <trkpt lat="51.201428" lon="9.064692">
        <ele>307.421983</ele>
        <time>2024-07-14T20:28:26.120Z</time>
      </trkpt>
      <trkpt lat="51.201362" lon="9.064773">
        <ele>306.825655</ele>
        <time>2024-07-14T20:28:36.458Z</time>
      </trkpt>
      <trkpt lat="51.201232" lon="9.064859">
        <ele>305.817721</ele>
        <time>2024-07-14T20:28:53.738Z</time>
      </trkpt>
      <trkpt lat="51.200731" lon="9.064846">
        <ele>302.228886</ele>
        <time>2024-07-14T20:29:51.221Z</time>
      </trkpt>
      <trkpt lat="51.200242" lon="9.065001">
        <ele>298.658060</ele>
        <time>2024-07-14T20:30:43.669Z</time>
      </trkpt>
      <trkpt lat="51.200156" lon="9.065130">
        <ele>298.164037</ele>
        <time>2024-07-14T20:30:55.806Z</time>
      </trkpt>
      <trkpt lat="51.200075" lon="9.065432">
        <ele>298.562122</ele>
        <time>2024-07-14T20:31:17.132Z</time>
      </trkpt>
      <trkpt lat="51.200086" lon="9.065738">
        <ele>298.933548</ele>
        <time>2024-07-14T20:31:36.897Z</time>
      </trkpt>
      <trkpt lat="51.200236" lon="9.065979">
        <ele>299.345186</ele>
        <time>2024-07-14T20:31:58.249Z</time>
      </trkpt>
      <trkpt lat="51.200494" lon="9.066159">
        <ele>299.889739</ele>
        <time>2024-07-14T20:32:27.375Z</time>
      </trkpt>
      <trkpt lat="51.200991" lon="9.066198">
        <ele>300.852073</ele>
        <time>2024-07-14T20:33:24.281Z</time>
      </trkpt>
      <trkpt lat="51.201191" lon="9.066299">
        <ele>301.257765</ele>
        <time>2024-07-14T20:33:49.300Z</time>
      </trkpt>
      <trkpt lat="51.201305" lon="9.066356">
        <ele>301.488802</ele>
        <time>2024-07-14T20:34:03.794Z</time>
      </trkpt>
      <trkpt lat="51.201454" lon="9.066588">
        <ele>301.991707</ele>
        <time>2024-07-14T20:34:28.867Z</time>
      </trkpt>
      <trkpt lat="51.201428" lon="9.066667">
        <ele>302.133369</ele>
        <time>2024-07-14T20:34:35.603Z</time>
      </trkpt>
      <trkpt lat="51.201116" lon="9.066619">
        <ele>302.927519</ele>
        <time>2024-07-14T20:35:12.995Z</time>
      </trkpt>
      <trkpt lat="51.201054" lon="9.066708">
        <ele>303.138797</ele>
        <time>2024-07-14T20:35:22.490Z</time>
      </trkpt>
      <trkpt lat="51.201277" lon="9.066845">
        <ele>303.744207</ele>
        <time>2024-07-14T20:35:49.855Z</time>
      </trkpt>
      <trkpt lat="51.201318" lon="9.066947">
        <ele>303.936590</ele>
        <time>2024-07-14T20:35:58.301Z</time>
      </trkpt>
      <trkpt lat="51.201311" lon="9.067197">
        <ele>304.333867</ele>
        <time>2024-07-14T20:36:15.401Z</time>
      </trkpt>
      <trkpt lat="51.201257" lon="9.067258">
        <ele>304.501486</ele>
        <time>2024-07-14T20:36:22.281Z</time>
      </trkpt>
      <trkpt lat="51.201008" lon="9.067536">
        <ele>305.271402</ele>
        <time>2024-07-14T20:36:53.482Z</time>
      </trkpt>
      <trkpt lat="51.200064" lon="9.068167">
        <ele>304.320406</ele>
        <time>2024-07-14T20:38:38.784Z</time>
      </trkpt>
      <trkpt lat="51.199598" lon="9.068255">
        <ele>303.087131</ele>
        <time>2024-07-14T20:39:30.757Z</time>
      </trkpt>
      <trkpt lat="51.199182" lon="9.068167">
        <ele>301.984247</ele>
        <time>2024-07-14T20:40:16.247Z</time>
      </trkpt>
      <trkpt lat="51.198746" lon="9.067762">
        <ele>301.627767</ele>
        <time>2024-07-14T20:41:08.024Z</time>
      </trkpt>
      <trkpt lat="51.198767" lon="9.067625">
        <ele>301.700033</ele>
        <time>2024-07-14T20:41:17.004Z</time>
      </trkpt>
      <trkpt lat="51.198714" lon="9.067071">
        <ele>301.987182</ele>
        <time>2024-07-14T20:41:52.843Z</time>
      </trkpt>
      <trkpt lat="51.198774" lon="9.066864">
        <ele>302.104042</ele>
        <time>2024-07-14T20:42:08.091Z</time>
      </trkpt>
      <trkpt lat="51.198714" lon="9.067071">
        <ele>302.220903</ele>
        <time>2024-07-14T20:42:23.519Z</time>
      </trkpt>
      <trkpt lat="51.198767" lon="9.067625">
        <ele>302.508051</ele>
        <time>2024-07-14T20:42:59.546Z</time>
      </trkpt>
      <trkpt lat="51.198746" lon="9.067762">
        <ele>302.580317</ele>
        <time>2024-07-14T20:43:09.111Z</time>
      </trkpt>
      <trkpt lat="51.198796" lon="9.067928">
        <ele>302.674689</ele>
        <time>2024-07-14T20:43:20.722Z</time>
      </trkpt>
      <trkpt lat="51.198739" lon="9.068088">
        <ele>302.768992</ele>
        <time>2024-07-14T20:43:34.154Z</time>
      </trkpt>
      <trkpt lat="51.198354" lon="9.068573">
        <ele>305.937716</ele>
        <time>2024-07-14T20:44:34.005Z</time>
      </trkpt>
      <trkpt lat="51.198238" lon="9.068601">
        <ele>306.913966</ele>
        <time>2024-07-14T20:44:48.557Z</time>
      </trkpt>
      <trkpt lat="51.198023" lon="9.068535">
        <ele>308.735845</ele>
        <time>2024-07-14T20:45:20.292Z</time>
      </trkpt>
      <trkpt lat="51.197965" lon="9.068456">
        <ele>309.370375</ele>
        <time>2024-07-14T20:45:31.256Z</time>
      </trkpt>
      <trkpt lat="51.197821" lon="9.068346">
        <ele>310.698849</ele>
        <time>2024-07-14T20:45:52.527Z</time>
      </trkpt>
      <trkpt lat="51.197643" lon="9.067989">
        <ele>313.077774</ele>
        <time>2024-07-14T20:46:30.879Z</time>
      </trkpt>
      <trkpt lat="51.197566" lon="9.067892">
        <ele>313.894096</ele>
        <time>2024-07-14T20:46:43.374Z</time>
      </trkpt>
      <trkpt lat="51.197456" lon="9.067839">
        <ele>314.850250</ele>
        <time>2024-07-14T20:46:58.741Z</time>
      </trkpt>
      <trkpt lat="51.197293" lon="9.067950">
        <ele>316.324957</ele>
        <time>2024-07-14T20:47:21.681Z</time>
      </trkpt>
      <trkpt lat="51.197166" lon="9.067945">
        <ele>317.382084</ele>
        <time>2024-07-14T20:47:37.553Z</time>
      </trkpt>
      <trkpt lat="51.197106" lon="9.068137">
        <ele>318.378841</ele>
        <time>2024-07-14T20:47:55.344Z</time>
      </trkpt>
      <trkpt lat="51.197043" lon="9.068163">
        <ele>318.821030</ele>
        <time>2024-07-14T20:48:03.372Z</time>
      </trkpt>
      <trkpt lat="51.196773" lon="9.068368">
        <ele>320.852847</ele>
        <time>2024-07-14T20:48:41.159Z</time>
      </trkpt>
      <trkpt lat="51.196579" lon="9.068351">
        <ele>322.173123</ele>
        <time>2024-07-14T20:49:04.672Z</time>
      </trkpt>
      <trkpt lat="51.196508" lon="9.068296">
        <ele>322.709432</ele>
        <time>2024-07-14T20:49:14.945Z</time>
      </trkpt>
      <trkpt lat="51.196356" lon="9.068255">
        <ele>323.756971</ele>
        <time>2024-07-14T20:49:34.880Z</time>
      </trkpt>
      <trkpt lat="51.196350" lon="9.068253">
        <ele>323.798623</ele>
        <time>2024-07-14T20:49:35.639Z</time>
      </trkpt>
      <trkpt lat="51.196182" lon="9.068278">
        <ele>324.945188</ele>
        <time>2024-07-14T20:49:56.672Z</time>
      </trkpt>
      <trkpt lat="51.196073" lon="9.068359">
        <ele>325.762252</ele>
        <time>2024-07-14T20:50:12.845Z</time>
      </trkpt>
      <trkpt lat="51.196048" lon="9.068003">
        <ele>327.287708</ele>
        <time>2024-07-14T20:50:39.686Z</time>
      </trkpt>
      <trkpt lat="51.195881" lon="9.067686">
        <ele>329.051234</ele>
        <time>2024-07-14T20:51:11.093Z</time>
      </trkpt>
      <trkpt lat="51.195462" lon="9.067657">
        <ele>331.005229</ele>
        <time>2024-07-14T20:51:57.507Z</time>
      </trkpt>
      <trkpt lat="51.195339" lon="9.067573">
        <ele>331.472492</ele>
        <time>2024-07-14T20:52:12.368Z</time>
      </trkpt>
      <trkpt lat="51.195238" lon="9.067408">
        <ele>331.977306</ele>
        <time>2024-07-14T20:52:27.907Z</time>
      </trkpt>
      <trkpt lat="51.194961" lon="9.067237">
        <ele>333.014595</ele>
        <time>2024-07-14T20:53:00.326Z</time>
      </trkpt>
      <trkpt lat="51.194466" lon="9.066848">
        <ele>334.941652</ele>
        <time>2024-07-14T20:54:00.839Z</time>
      </trkpt>
      <trkpt lat="51.194139" lon="9.066674">
        <ele>336.145519</ele>
        <time>2024-07-14T20:54:41.376Z</time>
      </trkpt>
      <trkpt lat="51.193740" lon="9.066590">
        <ele>337.768287</ele>
        <time>2024-07-14T20:55:28.290Z</time>
      </trkpt>
      <trkpt lat="51.193415" lon="9.066426">
        <ele>339.172170</ele>
        <time>2024-07-14T20:56:05.523Z</time>
      </trkpt>
      <trkpt lat="51.193120" lon="9.066397">
        <ele>340.389462</ele>
        <time>2024-07-14T20:56:37.562Z</time>
      </trkpt>
      <trkpt lat="51.192827" lon="9.066265">
        <ele>341.643387</ele>
        <time>2024-07-14T20:57:12.108Z</time>
      </trkpt>
      <trkpt lat="51.192627" lon="9.066075">
        <ele>342.602044</ele>
        <time>2024-07-14T20:57:39.193Z</time>
      </trkpt>
      <trkpt lat="51.192569" lon="9.065909">
        <ele>343.092605</ele>
        <time>2024-07-14T20:57:53.391Z</time>
      </trkpt>
      <trkpt lat="51.192518" lon="9.065613">
        <ele>343.863298</ele>
        <time>2024-07-14T20:58:16.447Z</time>
      </trkpt>
      <trkpt lat="51.192469" lon="9.065049">
        <ele>345.101254</ele>
        <time>2024-07-14T20:59:00.250Z</time>
      </trkpt>
      <trkpt lat="51.192384" lon="9.064714">
        <ele>345.887030</ele>
        <time>2024-07-14T20:59:27.587Z</time>
      </trkpt>
      <trkpt lat="51.192028" lon="9.063978">
        <ele>347.908399</ele>
        <time>2024-07-14T21:00:34.560Z</time>
      </trkpt>
      <trkpt lat="51.191769" lon="9.063324">
        <ele>349.590424</ele>
        <time>2024-07-14T21:01:26.132Z</time>
      </trkpt>
      <trkpt lat="51.191725" lon="9.062972">
        <ele>349.297293</ele>
        <time>2024-07-14T21:01:48.896Z</time>
      </trkpt>
      <trkpt lat="51.191360" lon="9.062332">
        <ele>345.911707</ele>
        <time>2024-07-14T21:02:45.338Z</time>
      </trkpt>
      <trkpt lat="51.191242" lon="9.062026">
        <ele>344.505997</ele>
        <time>2024-07-14T21:03:10.545Z</time>
      </trkpt>
      <trkpt lat="51.191074" lon="9.061720">
        <ele>342.914348</ele>
        <time>2024-07-14T21:03:39.111Z</time>
      </trkpt>
      <trkpt lat="51.190948" lon="9.061304">
        <ele>341.106621</ele>
        <time>2024-07-14T21:04:13.345Z</time>
      </trkpt>
      <trkpt lat="51.190779" lon="9.060957">
        <ele>339.387220</ele>
        <time>2024-07-14T21:04:47.373Z</time>
      </trkpt>
      <trkpt lat="51.190585" lon="9.060749">
        <ele>336.834122</ele>
        <time>2024-07-14T21:05:16.471Z</time>
      </trkpt>
      <trkpt lat="51.190475" lon="9.060559">
        <ele>334.489236</ele>
        <time>2024-07-14T21:05:37.434Z</time>
      </trkpt>
      <trkpt lat="51.190213" lon="9.060311">
        <ele>330.082772</ele>
        <time>2024-07-14T21:06:17.471Z</time>
      </trkpt>
      <trkpt lat="51.190016" lon="9.060349">
        <ele>327.212472</ele>
        <time>2024-07-14T21:06:43.247Z</time>
      </trkpt>
      <trkpt lat="51.189710" lon="9.060095">
        <ele>322.223123</ele>
        <time>2024-07-14T21:07:29.598Z</time>
      </trkpt>
      <trkpt lat="51.189462" lon="9.059976">
        <ele>318.477161</ele>
        <time>2024-07-14T21:08:03.879Z</time>
      </trkpt>
      <trkpt lat="51.189178" lon="9.059903">
        <ele>314.316212</ele>
        <time>2024-07-14T21:08:40.858Z</time>
      </trkpt>
      <trkpt lat="51.188650" lon="9.059986">
        <ele>309.015171</ele>
        <time>2024-07-14T21:09:44.725Z</time>
      </trkpt>
      <trkpt lat="51.188371" lon="9.060125">
        <ele>306.432258</ele>
        <time>2024-07-14T21:10:17.984Z</time>
      </trkpt>
      <trkpt lat="51.188174" lon="9.060373">
        <ele>304.214734</ele>
        <time>2024-07-14T21:10:46.571Z</time>
      </trkpt>
      <trkpt lat="51.187828" lon="9.061243">
        <ele>298.507855</ele>
        <time>2024-07-14T21:12:00.655Z</time>
      </trkpt>
      <trkpt lat="51.187723" lon="9.061554">
        <ele>296.456225</ele>
        <time>2024-07-14T21:12:26.378Z</time>
      </trkpt>
      <trkpt lat="51.187702" lon="9.061617">
        <ele>295.934079</ele>
        <time>2024-07-14T21:12:31.689Z</time>
      </trkpt>
      <trkpt lat="51.187614" lon="9.062079">
        <ele>292.400701</ele>
        <time>2024-07-14T21:13:07.245Z</time>
      </trkpt>
      <trkpt lat="51.187492" lon="9.062074">
        <ele>290.975881</ele>
        <time>2024-07-14T21:13:21.773Z</time>
      </trkpt>
      <trkpt lat="51.187416" lon="9.061958">
        <ele>289.747943</ele>
        <time>2024-07-14T21:13:34.635Z</time>
      </trkpt>
      <trkpt lat="51.187388" lon="9.061755">
        <ele>288.226926</ele>
        <time>2024-07-14T21:13:50.485Z</time>
      </trkpt>
      <trkpt lat="51.187366" lon="9.060669">
        <ele>280.275860</ele>
        <time>2024-07-14T21:15:15.925Z</time>
      </trkpt>
      <trkpt lat="51.187386" lon="9.060312">
        <ele>277.653062</ele>
        <time>2024-07-14T21:15:44.521Z</time>
      </trkpt>
      <trkpt lat="51.187245" lon="9.059847">
        <ele>274.526967</ele>
        <time>2024-07-14T21:16:25.721Z</time>
      </trkpt>
      <trkpt lat="51.187113" lon="9.059567">
        <ele>272.811944</ele>
        <time>2024-07-14T21:16:54.104Z</time>
      </trkpt>
      <trkpt lat="51.187033" lon="9.059566">
        <ele>272.187140</ele>
        <time>2024-07-14T21:17:04.010Z</time>
      </trkpt>
      <trkpt lat="51.186961" lon="9.059606">
        <ele>271.591718</ele>
        <time>2024-07-14T21:17:13.356Z</time>
      </trkpt>
      <trkpt lat="51.186899" lon="9.059625">
        <ele>271.098658</ele>
        <time>2024-07-14T21:17:21.076Z</time>
      </trkpt>
      <trkpt lat="51.186886" lon="9.059658">
        <ele>270.907865</ele>
        <time>2024-07-14T21:17:23.965Z</time>
      </trkpt>
      <trkpt lat="51.186729" lon="9.059648">
        <ele>269.680748</ele>
        <time>2024-07-14T21:17:42.577Z</time>
      </trkpt>
      <trkpt lat="51.186188" lon="9.059822">
        <ele>265.370641</ele>
        <time>2024-07-14T21:18:45.817Z</time>
      </trkpt>
      <trkpt lat="51.185887" lon="9.060303">
        <ele>262.043478</ele>
        <time>2024-07-14T21:19:31.868Z</time>
      </trkpt>
      <trkpt lat="51.185779" lon="9.060870">
        <ele>264.475892</ele>
        <time>2024-07-14T21:20:10.249Z</time>
      </trkpt>
      <trkpt lat="51.185676" lon="9.060902">
        <ele>265.300435</ele>
        <time>2024-07-14T21:20:22.332Z</time>
      </trkpt>
      <trkpt lat="51.185598" lon="9.060985">
        <ele>266.037154</ele>
        <time>2024-07-14T21:20:33.749Z</time>
      </trkpt>
      <trkpt lat="51.185505" lon="9.060995">
        <ele>266.769576</ele>
        <time>2024-07-14T21:20:44.951Z</time>
      </trkpt>
      <trkpt lat="51.185339" lon="9.061089">
        <ele>268.153677</ele>
        <time>2024-07-14T21:21:07.652Z</time>
      </trkpt>
      <trkpt lat="51.185189" lon="9.061065">
        <ele>269.338241</ele>
        <time>2024-07-14T21:21:27.227Z</time>
      </trkpt>
      <trkpt lat="51.184989" lon="9.061263">
        <ele>271.187765</ele>
        <time>2024-07-14T21:22:00.336Z</time>
      </trkpt>
      <trkpt lat="51.184812" lon="9.061344">
        <ele>272.634661</ele>
        <time>2024-07-14T21:22:27.644Z</time>
      </trkpt>
      <trkpt lat="51.184712" lon="9.061453">
        <ele>273.586315</ele>
        <time>2024-07-14T21:22:46.184Z</time>
      </trkpt>
      <trkpt lat="51.184528" lon="9.062013">
        <ele>277.543885</ele>
        <time>2024-07-14T21:23:49.574Z</time>
      </trkpt>
      <trkpt lat="51.184516" lon="9.062151">
        <ele>278.985460</ele>
        <time>2024-07-14T21:24:03.112Z</time>
      </trkpt>
      <trkpt lat="51.184366" lon="9.062827">
        <ele>286.405457</ele>
        <time>2024-07-14T21:25:10.183Z</time>
      </trkpt>
      <trkpt lat="51.184200" lon="9.063329">
        <ele>292.278222</ele>
        <time>2024-07-14T21:26:07.515Z</time>
      </trkpt>
      <trkpt lat="51.184053" lon="9.063937">
        <ele>299.021087</ele>
        <time>2024-07-14T21:27:25.512Z</time>
      </trkpt>
      <trkpt lat="51.184031" lon="9.063952">
        <ele>299.416027</ele>
        <time>2024-07-14T21:27:31.250Z</time>
      </trkpt>
      <trkpt lat="51.183995" lon="9.064095">
        <ele>301.010557</ele>
        <time>2024-07-14T21:27:54.054Z</time>
      </trkpt>
      <trkpt lat="51.183742" lon="9.064354">
        <ele>305.968443</ele>
        <time>2024-07-14T21:28:52.742Z</time>
      </trkpt>
      <trkpt lat="51.183604" lon="9.064377">
        <ele>308.229893</ele>
        <time>2024-07-14T21:29:20.174Z</time>
      </trkpt>
      <trkpt lat="51.183559" lon="9.064334">
        <ele>309.084832</ele>
        <time>2024-07-14T21:29:28.334Z</time>
      </trkpt>
      <trkpt lat="51.183605" lon="9.064411">
        <ele>310.171545</ele>
        <time>2024-07-14T21:29:39.432Z</time>
      </trkpt>
      <trkpt lat="51.183716" lon="9.064516">
        <ele>312.274815</ele>
        <time>2024-07-14T21:30:07.047Z</time>
      </trkpt>
      <trkpt lat="51.183713" lon="9.064547">
        <ele>312.595275</ele>
        <time>2024-07-14T21:30:11.787Z</time>
      </trkpt>
      <trkpt lat="51.183603" lon="9.064566">
        <ele>314.398600</ele>
        <time>2024-07-14T21:30:29.482Z</time>
      </trkpt>
      <trkpt lat="51.183477" lon="9.064519">
        <ele>316.507615</ele>
        <time>2024-07-14T21:30:49.061Z</time>
      </trkpt>
      <trkpt lat="51.183452" lon="9.064829">
        <ele>319.700816</ele>
        <time>2024-07-14T21:31:26.303Z</time>
      </trkpt>
      <trkpt lat="51.183621" lon="9.064846">
        <ele>322.460753</ele>
        <time>2024-07-14T21:31:50.007Z</time>
      </trkpt>
      <trkpt lat="51.183894" lon="9.064874">
        <ele>326.919462</ele>
        <time>2024-07-14T21:32:35.605Z</time>
      </trkpt>
      <trkpt lat="51.184165" lon="9.064781">
        <ele>331.437421</ele>
        <time>2024-07-14T21:33:21.799Z</time>
      </trkpt>
      <trkpt lat="51.184381" lon="9.064594">
        <ele>335.308482</ele>
        <time>2024-07-14T21:34:00.031Z</time>
      </trkpt>
      <trkpt lat="51.184590" lon="9.064265">
        <ele>338.813313</ele>
        <time>2024-07-14T21:34:45.125Z</time>
      </trkpt>
      <trkpt lat="51.184938" lon="9.063959">
        <ele>343.556531</ele>
        <time>2024-07-14T21:35:49.464Z</time>
      </trkpt>
      <trkpt lat="51.185088" lon="9.063932">
        <ele>345.358428</ele>
        <time>2024-07-14T21:36:11.461Z</time>
      </trkpt>
      <trkpt lat="51.185511" lon="9.064222">
        <ele>350.854211</ele>
        <time>2024-07-14T21:37:13.141Z</time>
      </trkpt>
      <trkpt lat="51.185789" lon="9.064118">
        <ele>354.262681</ele>
        <time>2024-07-14T21:37:51.314Z</time>
      </trkpt>
      <trkpt lat="51.185885" lon="9.064034">
        <ele>355.569657</ele>
        <time>2024-07-14T21:38:05.806Z</time>
      </trkpt>
      <trkpt lat="51.186089" lon="9.064019">
        <ele>357.473792</ele>
        <time>2024-07-14T21:38:33.082Z</time>
      </trkpt>
      <trkpt lat="51.186221" lon="9.064518">
        <ele>360.171761</ele>
        <time>2024-07-14T21:39:17.604Z</time>
      </trkpt>
      <trkpt lat="51.186242" lon="9.064897">
        <ele>362.067033</ele>
        <time>2024-07-14T21:39:48.795Z</time>
      </trkpt>
      <trkpt lat="51.186323" lon="9.065276">
        <ele>364.061672</ele>
        <time>2024-07-14T21:40:21.543Z</time>
      </trkpt>
      <trkpt lat="51.186446" lon="9.065649">
        <ele>366.161138</ele>
        <time>2024-07-14T21:40:54.779Z</time>
      </trkpt>
      <trkpt lat="51.186537" lon="9.066086">
        <ele>368.454942</ele>
        <time>2024-07-14T21:41:29.795Z</time>
      </trkpt>
      <trkpt lat="51.186669" lon="9.066388">
        <ele>370.288933</ele>
        <time>2024-07-14T21:41:57.497Z</time>
      </trkpt>
      <trkpt lat="51.186712" lon="9.066553">
        <ele>370.954756</ele>
        <time>2024-07-14T21:42:10.831Z</time>
      </trkpt>
      <trkpt lat="51.186721" lon="9.066771">
        <ele>371.527846</ele>
        <time>2024-07-14T21:42:27.392Z</time>
      </trkpt>
      <trkpt lat="51.186641" lon="9.067139">
        <ele>372.549585</ele>
        <time>2024-07-14T21:42:56.362Z</time>
      </trkpt>
      <trkpt lat="51.186660" lon="9.067333">
        <ele>373.064655</ele>
        <time>2024-07-14T21:43:10.862Z</time>
      </trkpt>
      <trkpt lat="51.186664" lon="9.067340">
        <ele>373.089503</ele>
        <time>2024-07-14T21:43:11.579Z</time>
      </trkpt>
      <trkpt lat="51.186807" lon="9.067562">
        <ele>373.924543</ele>
        <time>2024-07-14T21:43:34.496Z</time>
      </trkpt>
      <trkpt lat="51.186989" lon="9.067759">
        <ele>374.844986</ele>
        <time>2024-07-14T21:43:59.578Z</time>
      </trkpt>
      <trkpt lat="51.187252" lon="9.067539">
        <ele>376.087783</ele>
        <time>2024-07-14T21:44:32.918Z</time>
      </trkpt>
      <trkpt lat="51.188016" lon="9.066717">
        <ele>379.395484</ele>
        <time>2024-07-14T21:46:14.703Z</time>
      </trkpt>
      <trkpt lat="51.188257" lon="9.066561">
        <ele>380.134917</ele>
        <time>2024-07-14T21:46:42.716Z</time>
      </trkpt>
      <trkpt lat="51.188637" lon="9.066056">
        <ele>381.540983</ele>
        <time>2024-07-14T21:47:36.960Z</time>
      </trkpt>
      <trkpt lat="51.188913" lon="9.065753">
        <ele>382.493492</ele>
        <time>2024-07-14T21:48:14.141Z</time>
      </trkpt>
      <trkpt lat="51.189124" lon="9.065412">
        <ele>383.346827</ele>
        <time>2024-07-14T21:48:47.466Z</time>
      </trkpt>
      <trkpt lat="51.189370" lon="9.065101">
        <ele>383.668242</ele>
        <time>2024-07-14T21:49:22.320Z</time>
      </trkpt>
      <trkpt lat="51.189539" lon="9.064772">
        <ele>383.941266</ele>
        <time>2024-07-14T21:49:51.622Z</time>
      </trkpt>
      <trkpt lat="51.189626" lon="9.064402">
        <ele>384.194905</ele>
        <time>2024-07-14T21:50:18.567Z</time>
      </trkpt>
      <trkpt lat="51.189943" lon="9.063855">
        <ele>384.673069</ele>
        <time>2024-07-14T21:51:06.308Z</time>
      </trkpt>
      <trkpt lat="51.190466" lon="9.063431">
        <ele>384.793818</ele>
        <time>2024-07-14T21:52:05.970Z</time>
      </trkpt>
      <trkpt lat="51.190790" lon="9.063113">
        <ele>382.993141</ele>
        <time>2024-07-14T21:52:45.735Z</time>
      </trkpt>
      <trkpt lat="51.190914" lon="9.062954">
        <ele>382.240099</ele>
        <time>2024-07-14T21:53:02.782Z</time>
      </trkpt>
      <trkpt lat="51.190939" lon="9.063020">
        <ele>382.011307</ele>
        <time>2024-07-14T21:53:07.943Z</time>
      </trkpt>
      <trkpt lat="51.191198" lon="9.063697">
        <ele>379.658166</ele>
        <time>2024-07-14T21:54:02.196Z</time>
      </trkpt>
      <trkpt lat="51.191411" lon="9.064429">
        <ele>377.263844</ele>
        <time>2024-07-14T21:54:59.754Z</time>
      </trkpt>
      <trkpt lat="51.191683" lon="9.065054">
        <ele>373.269075</ele>
        <time>2024-07-14T21:55:56.030Z</time>
      </trkpt>
      <trkpt lat="51.192150" lon="9.066421">
        <ele>363.838366</ele>
        <time>2024-07-14T21:57:53.302Z</time>
      </trkpt>
      <trkpt lat="51.192247" lon="9.066664">
        <ele>362.093221</ele>
        <time>2024-07-14T21:58:15.092Z</time>
      </trkpt>
      <trkpt lat="51.192506" lon="9.066980">
        <ele>358.981809</ele>
        <time>2024-07-14T21:58:54.233Z</time>
      </trkpt>
      <trkpt lat="51.192640" lon="9.067258">
        <ele>357.100726</ele>
        <time>2024-07-14T21:59:20.537Z</time>
      </trkpt>
      <trkpt lat="51.192668" lon="9.067501">
        <ele>355.775539</ele>
        <time>2024-07-14T21:59:38.955Z</time>
      </trkpt>
      <trkpt lat="51.192716" lon="9.067625">
        <ele>354.993818</ele>
        <time>2024-07-14T21:59:49.854Z</time>
      </trkpt>
      <trkpt lat="51.193008" lon="9.068139">
        <ele>351.272879</ele>
        <time>2024-07-14T22:00:40.999Z</time>
      </trkpt>
      <trkpt lat="51.193214" lon="9.068391">
        <ele>349.051381</ele>
        <time>2024-07-14T22:01:11.408Z</time>
      </trkpt>
      <trkpt lat="51.193396" lon="9.068555">
        <ele>347.262559</ele>
        <time>2024-07-14T22:01:35.729Z</time>
      </trkpt>
      <trkpt lat="51.193670" lon="9.068738">
        <ele>344.720450</ele>
        <time>2024-07-14T22:02:09.899Z</time>
      </trkpt>
      <trkpt lat="51.194200" lon="9.069022">
        <ele>341.338897</ele>
        <time>2024-07-14T22:03:13.116Z</time>
      </trkpt>
      <trkpt lat="51.195118" lon="9.069412">
        <ele>336.089205</ele>
        <time>2024-07-14T22:04:57.874Z</time>
      </trkpt>
      <trkpt lat="51.195975" lon="9.069777">
        <ele>331.167294</ele>
        <time>2024-07-14T22:06:35.340Z</time>
      </trkpt>
      <trkpt lat="51.195999" lon="9.068904">
        <ele>328.119073</ele>
        <time>2024-07-14T22:07:35.262Z</time>
      </trkpt>
      <trkpt lat="51.196073" lon="9.068359">
        <ele>326.173833</ele>
        <time>2024-07-14T22:08:14.634Z</time>
      </trkpt>
      <trkpt lat="51.196182" lon="9.068278">
        <ele>325.504518</ele>
        <time>2024-07-14T22:08:28.664Z</time>
      </trkpt>
      <trkpt lat="51.196350" lon="9.068253">
        <ele>324.565285</ele>
        <time>2024-07-14T22:08:47.508Z</time>
      </trkpt>
      <trkpt lat="51.196356" lon="9.068255">
        <ele>324.531165</ele>
        <time>2024-07-14T22:08:48.188Z</time>
      </trkpt>
      <trkpt lat="51.196508" lon="9.068296">
        <ele>323.578103</ele>
        <time>2024-07-14T22:09:05.730Z</time>
      </trkpt>
      <trkpt lat="51.196579" lon="9.068351">
        <ele>322.985183</ele>
        <time>2024-07-14T22:09:14.900Z</time>
      </trkpt>
      <trkpt lat="51.196773" lon="9.068368">
        <ele>321.525542</ele>
        <time>2024-07-14T22:09:36.493Z</time>
      </trkpt>
      <trkpt lat="51.197043" lon="9.068163">
        <ele>319.279253</ele>
        <time>2024-07-14T22:10:11.010Z</time>
      </trkpt>
      <trkpt lat="51.197106" lon="9.068137">
        <ele>318.790388</ele>
        <time>2024-07-14T22:10:18.511Z</time>
      </trkpt>
      <trkpt lat="51.197166" lon="9.067945">
        <ele>317.780346</ele>
        <time>2024-07-14T22:10:34.734Z</time>
      </trkpt>
      <trkpt lat="51.197293" lon="9.067950">
        <ele>316.825955</ele>
        <time>2024-07-14T22:10:49.604Z</time>
      </trkpt>
      <trkpt lat="51.197456" lon="9.067839">
        <ele>315.494566</ele>
        <time>2024-07-14T22:11:10.638Z</time>
      </trkpt>
      <trkpt lat="51.197566" lon="9.067892">
        <ele>314.631334</ele>
        <time>2024-07-14T22:11:24.436Z</time>
      </trkpt>
      <trkpt lat="51.197643" lon="9.067989">
        <ele>313.894346</ele>
        <time>2024-07-14T22:11:35.821Z</time>
      </trkpt>
      <trkpt lat="51.197821" lon="9.068346">
        <ele>311.746614</ele>
        <time>2024-07-14T22:12:08.981Z</time>
      </trkpt>
      <trkpt lat="51.197965" lon="9.068456">
        <ele>310.547246</ele>
        <time>2024-07-14T22:12:26.929Z</time>
      </trkpt>
      <trkpt lat="51.198023" lon="9.068535">
        <ele>310.263391</ele>
        <time>2024-07-14T22:12:35.620Z</time>
      </trkpt>
      <trkpt lat="51.198238" lon="9.068601">
        <ele>309.657028</ele>
        <time>2024-07-14T22:12:59.661Z</time>
      </trkpt>
      <trkpt lat="51.198354" lon="9.068573">
        <ele>309.332110</ele>
        <time>2024-07-14T22:13:12.827Z</time>
      </trkpt>
      <trkpt lat="51.198739" lon="9.068088">
        <ele>307.973669</ele>
        <time>2024-07-14T22:14:04.821Z</time>
      </trkpt>
      <trkpt lat="51.198796" lon="9.067928">
        <ele>307.654261</ele>
        <time>2024-07-14T22:14:16.825Z</time>
      </trkpt>
      <trkpt lat="51.198746" lon="9.067762">
        <ele>307.334625</ele>
        <time>2024-07-14T22:14:29.015Z</time>
      </trkpt>
      <trkpt lat="51.199182" lon="9.068167">
        <ele>305.937458</ele>
        <time>2024-07-14T22:15:20.318Z</time>
      </trkpt>
      <trkpt lat="51.199598" lon="9.068255">
        <ele>305.544315</ele>
        <time>2024-07-14T22:16:02.461Z</time>
      </trkpt>
      <trkpt lat="51.200064" lon="9.068167">
        <ele>305.724283</ele>
        <time>2024-07-14T22:16:50.998Z</time>
      </trkpt>
      <trkpt lat="51.201008" lon="9.067536">
        <ele>306.116800</ele>
        <time>2024-07-14T22:18:37.713Z</time>
      </trkpt>
      <trkpt lat="51.201257" lon="9.067258">
        <ele>305.283902</ele>
        <time>2024-07-14T22:19:08.592Z</time>
      </trkpt>
      <trkpt lat="51.201311" lon="9.067197">
        <ele>305.049559</ele>
        <time>2024-07-14T22:19:15.346Z</time>
      </trkpt>
      <trkpt lat="51.201318" lon="9.066947">
        <ele>304.494138</ele>
        <time>2024-07-14T22:19:31.873Z</time>
      </trkpt>
      <trkpt lat="51.201277" lon="9.066845">
        <ele>304.225173</ele>
        <time>2024-07-14T22:19:39.972Z</time>
      </trkpt>
      <trkpt lat="51.201054" lon="9.066708">
        <ele>303.378767</ele>
        <time>2024-07-14T22:20:05.895Z</time>
      </trkpt>
      <trkpt lat="51.201116" lon="9.066619">
        <ele>303.083386</ele>
        <time>2024-07-14T22:20:14.892Z</time>
      </trkpt>
      <trkpt lat="51.201428" lon="9.066667">
        <ele>301.973107</ele>
        <time>2024-07-14T22:20:49.800Z</time>
      </trkpt>
      <trkpt lat="51.201454" lon="9.066588">
        <ele>301.775054</ele>
        <time>2024-07-14T22:20:56.063Z</time>
      </trkpt>
      <trkpt lat="51.201305" lon="9.066356">
        <ele>301.037699</ele>
        <time>2024-07-14T22:21:19.376Z</time>
      </trkpt>
      <trkpt lat="51.200991" lon="9.066198">
        <ele>299.871487</ele>
        <time>2024-07-14T22:21:56.182Z</time>
      </trkpt>
      <trkpt lat="51.200494" lon="9.066159">
        <ele>299.632524</ele>
        <time>2024-07-14T22:22:50.111Z</time>
      </trkpt>
      <trkpt lat="51.200236" lon="9.065979">
        <ele>299.550254</ele>
        <time>2024-07-14T22:23:18.854Z</time>
      </trkpt>
      <trkpt lat="51.200086" lon="9.065738">
        <ele>299.488064</ele>
        <time>2024-07-14T22:23:40.189Z</time>
      </trkpt>
      <trkpt lat="51.200075" lon="9.065432">
        <ele>299.431949</ele>
        <time>2024-07-14T22:24:00.321Z</time>
      </trkpt>
      <trkpt lat="51.200156" lon="9.065130">
        <ele>299.371807</ele>
        <time>2024-07-14T22:24:22.151Z</time>
      </trkpt>
      <trkpt lat="51.200242" lon="9.065001">
        <ele>299.337323</ele>
        <time>2024-07-14T22:24:34.411Z</time>
      </trkpt>
      <trkpt lat="51.200731" lon="9.064846">
        <ele>300.173206</ele>
        <time>2024-07-14T22:25:29.420Z</time>
      </trkpt>
      <trkpt lat="51.201232" lon="9.064859">
        <ele>302.773460</ele>
        <time>2024-07-14T22:26:29.440Z</time>
      </trkpt>
      <trkpt lat="51.201362" lon="9.064773">
        <ele>303.503749</ele>
        <time>2024-07-14T22:26:46.226Z</time>
      </trkpt>
      <trkpt lat="51.201428" lon="9.064692">
        <ele>303.935812</ele>
        <time>2024-07-14T22:26:57.477Z</time>
      </trkpt>
      <trkpt lat="51.201482" lon="9.064407">
        <ele>304.903967</ele>
        <time>2024-07-14T22:27:21.271Z</time>
      </trkpt>
      <trkpt lat="51.201371" lon="9.064507">
        <ele>305.565434</ele>
        <time>2024-07-14T22:27:36.797Z</time>
      </trkpt>
      <trkpt lat="51.201482" lon="9.064407">
        <ele>306.226902</ele>
        <time>2024-07-14T22:27:53.879Z</time>
      </trkpt>
      <trkpt lat="51.201525" lon="9.064046">
        <ele>307.421758</ele>
        <time>2024-07-14T22:28:20.436Z</time>
      </trkpt>
      <trkpt lat="51.201524" lon="9.064019">
        <ele>307.509705</ele>
        <time>2024-07-14T22:28:22.600Z</time>
      </trkpt>
      <trkpt lat="51.201513" lon="9.063800">
        <ele>308.224093</ele>
        <time>2024-07-14T22:28:39.422Z</time>
      </trkpt>
      <trkpt lat="51.201621" lon="9.063575">
        <ele>309.071983</ele>
        <time>2024-07-14T22:28:58.255Z</time>
      </trkpt>
      <trkpt lat="51.201751" lon="9.063503">
        <ele>309.693355</ele>
        <time>2024-07-14T22:29:14.037Z</time>
      </trkpt>
      <trkpt lat="51.201823" lon="9.063361">
        <ele>310.210199</ele>
        <time>2024-07-14T22:29:25.553Z</time>
      </trkpt>
      <trkpt lat="51.201981" lon="9.063164">
        <ele>311.115580</ele>
        <time>2024-07-14T22:29:46.394Z</time>
      </trkpt>
      <trkpt lat="51.202246" lon="9.063107">
        <ele>312.323034</ele>
        <time>2024-07-14T22:30:13.409Z</time>
      </trkpt>
      <trkpt lat="51.202367" lon="9.063035">
        <ele>312.906164</ele>
        <time>2024-07-14T22:30:27.922Z</time>
      </trkpt>
      <trkpt lat="51.202429" lon="9.062929">
        <ele>313.316442</ele>
        <time>2024-07-14T22:30:37.246Z</time>
      </trkpt>
      <trkpt lat="51.202446" lon="9.062857">
        <ele>313.534139</ele>
        <time>2024-07-14T22:30:42.475Z</time>
      </trkpt>
      <trkpt lat="51.202438" lon="9.062738">
        <ele>313.872764</ele>
        <time>2024-07-14T22:30:51.229Z</time>
      </trkpt>
      <trkpt lat="51.202367" lon="9.062434">
        <ele>314.790696</ele>
        <time>2024-07-14T22:31:14.902Z</time>
      </trkpt>
      <trkpt lat="51.202361" lon="9.062092">
        <ele>315.758714</ele>
        <time>2024-07-14T22:31:42.043Z</time>
      </trkpt>
      <trkpt lat="51.202449" lon="9.061989">
        <ele>316.251494</ele>
        <time>2024-07-14T22:31:56.075Z</time>
      </trkpt>
      <trkpt lat="51.202540" lon="9.061945">
        <ele>316.680859</ele>
        <time>2024-07-14T22:32:08.191Z</time>
      </trkpt>
      <trkpt lat="51.202848" lon="9.061916">
        <ele>320.721773</ele>
        <time>2024-07-14T22:32:50.331Z</time>
      </trkpt>
      <trkpt lat="51.203272" lon="9.062168">
        <ele>326.701275</ele>
        <time>2024-07-14T22:33:55.847Z</time>
      </trkpt>
      <trkpt lat="51.203445" lon="9.062181">
        <ele>328.990172</ele>
        <time>2024-07-14T22:34:23.352Z</time>
      </trkpt>
      <trkpt lat="51.203796" lon="9.062293">
        <ele>333.720779</ele>
        <time>2024-07-14T22:35:23.747Z</time>
      </trkpt>
      <trkpt lat="51.203931" lon="9.062459">
        <ele>335.973030</ele>
        <time>2024-07-14T22:35:52.848Z</time>
      </trkpt>
      <trkpt lat="51.204004" lon="9.062466">
        <ele>336.939536</ele>
        <time>2024-07-14T22:36:06.395Z</time>
      </trkpt>
      <trkpt lat="51.204070" lon="9.062394">
        <ele>337.996074</ele>
        <time>2024-07-14T22:36:21.308Z</time>
      </trkpt>
      <trkpt lat="51.204141" lon="9.062393">
        <ele>338.934445</ele>
        <time>2024-07-14T22:36:33.990Z</time>
      </trkpt>
      <trkpt lat="51.204724" lon="9.062885">
        <ele>344.062427</ele>
        <time>2024-07-14T22:38:18.776Z</time>
      </trkpt>
      <trkpt lat="51.204843" lon="9.063156">
        <ele>345.433303</ele>
        <time>2024-07-14T22:38:45.594Z</time>
      </trkpt>
      <trkpt lat="51.205021" lon="9.063301">
        <ele>346.754605</ele>
        <time>2024-07-14T22:39:09.884Z</time>
      </trkpt>
      <trkpt lat="51.205070" lon="9.063341">
        <ele>347.118492</ele>
        <time>2024-07-14T22:39:16.300Z</time>
      </trkpt>
      <trkpt lat="51.204916" lon="9.062750">
        <ele>349.769981</ele>
        <time>2024-07-14T22:39:58.287Z</time>
      </trkpt>
      <trkpt lat="51.204809" lon="9.062472">
        <ele>351.121531</ele>
        <time>2024-07-14T22:40:18.900Z</time>
      </trkpt>
      <trkpt lat="51.204596" lon="9.062202">
        <ele>352.564242</ele>
        <time>2024-07-14T22:40:46.840Z</time>
      </trkpt>
      <trkpt lat="51.204307" lon="9.062021">
        <ele>353.306406</ele>
        <time>2024-07-14T22:41:18.597Z</time>
      </trkpt>
      <trkpt lat="51.204086" lon="9.061746">
        <ele>353.976316</ele>
        <time>2024-07-14T22:41:48.022Z</time>
      </trkpt>
      <trkpt lat="51.204048" lon="9.061632">
        <ele>354.169728</ele>
        <time>2024-07-14T22:41:56.319Z</time>
      </trkpt>
      <trkpt lat="51.204013" lon="9.061338">
        <ele>354.617964</ele>
        <time>2024-07-14T22:42:16.738Z</time>
      </trkpt>
      <trkpt lat="51.203904" lon="9.061061">
        <ele>355.107899</ele>
        <time>2024-07-14T22:42:38.242Z</time>
      </trkpt>
      <trkpt lat="51.203865" lon="9.060006">
        <ele>356.662598</ele>
        <time>2024-07-14T22:43:54.139Z</time>
      </trkpt>
      <trkpt lat="51.203908" lon="9.059829">
        <ele>356.662598</ele>
        <time>2024-07-14T22:44:08.295Z</time>
      </trkpt>
      <trkpt lat="51.203938" lon="9.059715">
        <ele>356.662598</ele>
        <time>2024-07-14T22:44:18.002Z</time>
      </trkpt>
      <trkpt lat="51.204081" lon="9.059430">
        <ele>356.662598</ele>
        <time>2024-07-14T22:44:46.519Z</time>
      </trkpt>
      <trkpt lat="51.204239" lon="9.059198">
        <ele>356.662598</ele>
        <time>2024-07-14T22:45:15.359Z</time>
      </trkpt>
      <trkpt lat="51.204203" lon="9.059056">
        <ele>356.662598</ele>
        <time>2024-07-14T22:45:27.387Z</time>
      </trkpt>
      <trkpt lat="51.204213" lon="9.058759">
        <ele>356.662598</ele>
        <time>2024-07-14T22:45:52.525Z</time>
      </trkpt>
      <trkpt lat="51.204290" lon="9.058703">
        <ele>356.662598</ele>
        <time>2024-07-14T22:46:05.227Z</time>
      </trkpt>
      <trkpt lat="51.204374" lon="9.058693">
        <ele>356.662598</ele>
        <time>2024-07-14T22:46:16.182Z</time>
      </trkpt>
      <trkpt lat="51.204419" lon="9.058648">
        <ele>356.662598</ele>
        <time>2024-07-14T22:46:23.300Z</time>
      </trkpt>
      <trkpt lat="51.204264" lon="9.058196">
        <ele>356.662598</ele>
        <time>2024-07-14T22:47:05.676Z</time>
      </trkpt>
      <trkpt lat="51.204247" lon="9.058161">
        <ele>356.662598</ele>
        <time>2024-07-14T22:47:09.252Z</time>
      </trkpt>
      <trkpt lat="51.204186" lon="9.058041">
        <ele>356.662598</ele>
        <time>2024-07-14T22:47:21.504Z</time>
      </trkpt>
      <trkpt lat="51.203988" lon="9.057763">
        <ele>356.662598</ele>
        <time>2024-07-14T22:47:54.475Z</time>
      </trkpt>
    </trkseg>
  </trk>
</gpx>